sensor_id;sensor_type;location;lat;lon;timestamp;temperature;humidity
6988;DHT22;3534;49.960;8.018;2023-08-07T00:00:22;15.50;99.90
6988;DHT22;3534;49.960;8.018;2023-08-07T00:02:48;15.50;99.90
6988;DHT22;3534;49.960;8.018;2023-08-07T00:05:15;15.50;99.90
6988;DHT22;3534;49.960;8.018;2023-08-07T00:07:42;15.50;99.90
6988;DHT22;3534;49.960;8.018;2023-08-07T00:10:11;15.50;99.90
6988;DHT22;3534;49.960;8.018;2023-08-07T00:12:38;15.50;99.90
6988;DHT22;3534;49.960;8.018;2023-08-07T00:15:06;15.50;99.90
6988;DHT22;3534;49.960;8.018;2023-08-07T00:17:33;15.50;99.90
6988;DHT22;3534;49.960;8.018;2023-08-07T00:19:59;15.50;99.90
6988;DHT22;3534;49.960;8.018;2023-08-07T00:22:26;15.50;99.90
6988;DHT22;3534;49.960;8.018;2023-08-07T00:24:53;15.50;99.90
6988;DHT22;3534;49.960;8.018;2023-08-07T00:27:21;15.50;99.90
6988;DHT22;3534;49.960;8.018;2023-08-07T00:29:47;15.50;99.90
6988;DHT22;3534;49.960;8.018;2023-08-07T00:32:14;15.50;99.90
6988;DHT22;3534;49.960;8.018;2023-08-07T00:34:41;15.50;99.90
6988;DHT22;3534;49.960;8.018;2023-08-07T00:37:07;15.50;99.90
6988;DHT22;3534;49.960;8.018;2023-08-07T00:39:34;15.50;99.90
6988;DHT22;3534;49.960;8.018;2023-08-07T00:42:01;15.50;99.90
6988;DHT22;3534;49.960;8.018;2023-08-07T00:44:29;15.50;99.90
6988;DHT22;3534;49.960;8.018;2023-08-07T00:46:55;15.40;99.90
6988;DHT22;3534;49.960;8.018;2023-08-07T00:49:22;15.40;99.90
6988;DHT22;3534;49.960;8.018;2023-08-07T00:51:49;15.40;99.90
6988;DHT22;3534;49.960;8.018;2023-08-07T00:54:18;15.40;99.90
6988;DHT22;3534;49.960;8.018;2023-08-07T00:56:46;15.40;99.90
6988;DHT22;3534;49.960;8.018;2023-08-07T00:59:13;15.40;99.90
6988;DHT22;3534;49.960;8.018;2023-08-07T01:01:41;15.40;99.90
6988;DHT22;3534;49.960;8.018;2023-08-07T01:04:08;15.40;99.90
6988;DHT22;3534;49.960;8.018;2023-08-07T01:06:34;15.50;99.90
6988;DHT22;3534;49.960;8.018;2023-08-07T01:09:01;15.40;99.90
6988;DHT22;3534;49.960;8.018;2023-08-07T01:11:34;15.40;99.90
6988;DHT22;3534;49.960;8.018;2023-08-07T01:14:06;15.40;99.90
6988;DHT22;3534;49.960;8.018;2023-08-07T01:16:41;15.40;99.90
6988;DHT22;3534;49.960;8.018;2023-08-07T01:19:24;15.40;99.90
6988;DHT22;3534;49.960;8.018;2023-08-07T01:22:04;15.30;99.90
6988;DHT22;3534;49.960;8.018;2023-08-07T01:24:31;15.30;99.90
6988;DHT22;3534;49.960;8.018;2023-08-07T01:27:02;15.30;99.90
6988;DHT22;3534;49.960;8.018;2023-08-07T01:29:36;15.30;99.90
6988;DHT22;3534;49.960;8.018;2023-08-07T01:32:08;15.30;99.90
6988;DHT22;3534;49.960;8.018;2023-08-07T01:34:37;15.30;99.90
6988;DHT22;3534;49.960;8.018;2023-08-07T01:37:09;15.30;99.90
6988;DHT22;3534;49.960;8.018;2023-08-07T01:39:37;15.30;99.90
6988;DHT22;3534;49.960;8.018;2023-08-07T01:42:05;15.20;99.90
6988;DHT22;3534;49.960;8.018;2023-08-07T01:44:31;15.20;99.90
6988;DHT22;3534;49.960;8.018;2023-08-07T01:46:58;15.20;99.90
6988;DHT22;3534;49.960;8.018;2023-08-07T01:49:25;15.20;99.90
6988;DHT22;3534;49.960;8.018;2023-08-07T01:51:51;15.20;99.90
6988;DHT22;3534;49.960;8.018;2023-08-07T01:54:19;15.30;99.90
6988;DHT22;3534;49.960;8.018;2023-08-07T01:56:46;15.30;99.90
6988;DHT22;3534;49.960;8.018;2023-08-07T01:59:13;15.30;99.90
6988;DHT22;3534;49.960;8.018;2023-08-07T02:01:39;15.20;99.90
6988;DHT22;3534;49.960;8.018;2023-08-07T02:04:06;15.30;99.90
6988;DHT22;3534;49.960;8.018;2023-08-07T02:06:33;15.30;99.90
6988;DHT22;3534;49.960;8.018;2023-08-07T02:08:59;15.30;99.90
6988;DHT22;3534;49.960;8.018;2023-08-07T02:11:27;15.30;99.90
6988;DHT22;3534;49.960;8.018;2023-08-07T02:13:54;15.20;99.90
6988;DHT22;3534;49.960;8.018;2023-08-07T02:16:20;15.20;99.90
6988;DHT22;3534;49.960;8.018;2023-08-07T02:18:47;15.20;99.90
6988;DHT22;3534;49.960;8.018;2023-08-07T02:21:14;15.20;99.90
6988;DHT22;3534;49.960;8.018;2023-08-07T02:23:40;15.20;99.90
6988;DHT22;3534;49.960;8.018;2023-08-07T02:26:07;15.20;99.90
6988;DHT22;3534;49.960;8.018;2023-08-07T02:28:35;15.20;99.90
6988;DHT22;3534;49.960;8.018;2023-08-07T02:31:02;15.20;99.90
6988;DHT22;3534;49.960;8.018;2023-08-07T02:33:28;15.20;99.90
6988;DHT22;3534;49.960;8.018;2023-08-07T02:35:56;15.20;99.90
6988;DHT22;3534;49.960;8.018;2023-08-07T02:38:22;15.10;99.90
6988;DHT22;3534;49.960;8.018;2023-08-07T02:40:49;15.20;99.90
6988;DHT22;3534;49.960;8.018;2023-08-07T02:43:15;15.20;99.90
6988;DHT22;3534;49.960;8.018;2023-08-07T02:45:43;15.20;99.90
6988;DHT22;3534;49.960;8.018;2023-08-07T02:48:10;15.20;99.90
6988;DHT22;3534;49.960;8.018;2023-08-07T02:50:37;15.20;99.90
6988;DHT22;3534;49.960;8.018;2023-08-07T02:53:03;15.10;99.90
6988;DHT22;3534;49.960;8.018;2023-08-07T02:55:30;15.10;99.90
6988;DHT22;3534;49.960;8.018;2023-08-07T02:57:57;15.10;99.90
6988;DHT22;3534;49.960;8.018;2023-08-07T03:00:23;15.10;99.90
6988;DHT22;3534;49.960;8.018;2023-08-07T03:02:51;15.10;99.90
6988;DHT22;3534;49.960;8.018;2023-08-07T03:05:18;15.10;99.90
6988;DHT22;3534;49.960;8.018;2023-08-07T03:07:45;15.10;99.90
6988;DHT22;3534;49.960;8.018;2023-08-07T03:10:12;15.10;99.90
6988;DHT22;3534;49.960;8.018;2023-08-07T03:12:38;15.10;99.90
6988;DHT22;3534;49.960;8.018;2023-08-07T03:15:06;15.10;99.90
6988;DHT22;3534;49.960;8.018;2023-08-07T03:17:33;15.10;99.90
6988;DHT22;3534;49.960;8.018;2023-08-07T03:20:01;15.10;99.90
6988;DHT22;3534;49.960;8.018;2023-08-07T03:22:29;15.10;99.90
6988;DHT22;3534;49.960;8.018;2023-08-07T03:24:56;15.20;99.90
6988;DHT22;3534;49.960;8.018;2023-08-07T03:27:22;15.10;99.90
6988;DHT22;3534;49.960;8.018;2023-08-07T03:29:49;15.20;99.90
6988;DHT22;3534;49.960;8.018;2023-08-07T03:32:16;15.10;99.90
6988;DHT22;3534;49.960;8.018;2023-08-07T03:34:42;15.10;99.90
6988;DHT22;3534;49.960;8.018;2023-08-07T03:37:10;15.10;99.90
6988;DHT22;3534;49.960;8.018;2023-08-07T03:39:37;15.10;99.90
6988;DHT22;3534;49.960;8.018;2023-08-07T03:42:04;15.10;99.90
6988;DHT22;3534;49.960;8.018;2023-08-07T03:44:31;15.10;99.90
6988;DHT22;3534;49.960;8.018;2023-08-07T03:46:58;15.10;99.90
6988;DHT22;3534;49.960;8.018;2023-08-07T03:49:25;15.10;99.90
6988;DHT22;3534;49.960;8.018;2023-08-07T03:51:51;15.10;99.90
6988;DHT22;3534;49.960;8.018;2023-08-07T03:54:19;15.10;99.90
6988;DHT22;3534;49.960;8.018;2023-08-07T03:56:46;15.10;99.90
6988;DHT22;3534;49.960;8.018;2023-08-07T03:59:13;15.10;99.90
6988;DHT22;3534;49.960;8.018;2023-08-07T04:01:40;15.10;99.90
6988;DHT22;3534;49.960;8.018;2023-08-07T04:04:07;15.10;99.90
6988;DHT22;3534;49.960;8.018;2023-08-07T04:06:33;15.10;99.90
6988;DHT22;3534;49.960;8.018;2023-08-07T04:09:00;15.00;99.90
6988;DHT22;3534;49.960;8.018;2023-08-07T04:11:30;15.00;99.90
6988;DHT22;3534;49.960;8.018;2023-08-07T04:13:58;15.10;99.90
6988;DHT22;3534;49.960;8.018;2023-08-07T04:16:25;15.10;99.90
6988;DHT22;3534;49.960;8.018;2023-08-07T04:18:52;15.10;99.90
6988;DHT22;3534;49.960;8.018;2023-08-07T04:21:18;15.10;99.90
6988;DHT22;3534;49.960;8.018;2023-08-07T04:23:45;15.10;99.90
6988;DHT22;3534;49.960;8.018;2023-08-07T04:26:12;15.10;99.90
6988;DHT22;3534;49.960;8.018;2023-08-07T04:28:41;15.10;99.90
6988;DHT22;3534;49.960;8.018;2023-08-07T04:31:07;15.10;99.90
6988;DHT22;3534;49.960;8.018;2023-08-07T04:33:34;15.10;99.90
6988;DHT22;3534;49.960;8.018;2023-08-07T04:36:01;15.10;99.90
6988;DHT22;3534;49.960;8.018;2023-08-07T04:38:28;15.10;99.90
6988;DHT22;3534;49.960;8.018;2023-08-07T04:40:55;15.10;99.90
6988;DHT22;3534;49.960;8.018;2023-08-07T04:43:21;15.10;99.90
6988;DHT22;3534;49.960;8.018;2023-08-07T04:45:49;15.10;99.90
6988;DHT22;3534;49.960;8.018;2023-08-07T04:48:16;15.10;99.90
6988;DHT22;3534;49.960;8.018;2023-08-07T04:50:43;15.10;99.90
6988;DHT22;3534;49.960;8.018;2023-08-07T04:53:10;15.10;99.90
6988;DHT22;3534;49.960;8.018;2023-08-07T04:55:37;15.10;99.90
6988;DHT22;3534;49.960;8.018;2023-08-07T04:58:04;15.10;99.90
6988;DHT22;3534;49.960;8.018;2023-08-07T05:00:31;15.10;99.90
6988;DHT22;3534;49.960;8.018;2023-08-07T05:02:59;15.10;99.90
6988;DHT22;3534;49.960;8.018;2023-08-07T05:05:27;15.10;99.90
6988;DHT22;3534;49.960;8.018;2023-08-07T05:07:54;15.00;99.90
6988;DHT22;3534;49.960;8.018;2023-08-07T05:10:21;15.10;99.90
6988;DHT22;3534;49.960;8.018;2023-08-07T05:12:47;15.10;99.90
6988;DHT22;3534;49.960;8.018;2023-08-07T05:15:20;15.10;99.90
6988;DHT22;3534;49.960;8.018;2023-08-07T05:17:47;15.10;99.90
6988;DHT22;3534;49.960;8.018;2023-08-07T05:20:15;15.10;99.90
6988;DHT22;3534;49.960;8.018;2023-08-07T05:22:42;15.10;99.90
6988;DHT22;3534;49.960;8.018;2023-08-07T05:25:09;15.20;99.90
6988;DHT22;3534;49.960;8.018;2023-08-07T05:27:36;15.20;99.90
6988;DHT22;3534;49.960;8.018;2023-08-07T05:30:04;15.20;99.90
6988;DHT22;3534;49.960;8.018;2023-08-07T05:32:31;15.20;99.90
6988;DHT22;3534;49.960;8.018;2023-08-07T05:34:59;15.20;99.90
6988;DHT22;3534;49.960;8.018;2023-08-07T05:37:27;15.20;99.90
6988;DHT22;3534;49.960;8.018;2023-08-07T05:39:55;15.20;99.90
6988;DHT22;3534;49.960;8.018;2023-08-07T05:42:21;15.20;99.90
6988;DHT22;3534;49.960;8.018;2023-08-07T05:44:48;15.20;99.90
6988;DHT22;3534;49.960;8.018;2023-08-07T05:47:15;15.20;99.90
6988;DHT22;3534;49.960;8.018;2023-08-07T05:49:41;15.20;99.90
6988;DHT22;3534;49.960;8.018;2023-08-07T05:52:08;15.10;99.90
6988;DHT22;3534;49.960;8.018;2023-08-07T05:54:36;15.10;99.90
6988;DHT22;3534;49.960;8.018;2023-08-07T05:57:03;15.10;99.90
6988;DHT22;3534;49.960;8.018;2023-08-07T05:59:30;15.20;99.90
6988;DHT22;3534;49.960;8.018;2023-08-07T06:01:57;15.20;99.90
6988;DHT22;3534;49.960;8.018;2023-08-07T06:04:23;15.20;99.90
6988;DHT22;3534;49.960;8.018;2023-08-07T06:06:50;15.20;99.90
6988;DHT22;3534;49.960;8.018;2023-08-07T06:09:16;15.20;99.90
6988;DHT22;3534;49.960;8.018;2023-08-07T06:11:44;15.10;99.90
6988;DHT22;3534;49.960;8.018;2023-08-07T06:14:11;15.20;99.90
6988;DHT22;3534;49.960;8.018;2023-08-07T06:16:38;15.20;99.90
6988;DHT22;3534;49.960;8.018;2023-08-07T06:19:05;15.20;99.90
6988;DHT22;3534;49.960;8.018;2023-08-07T06:21:31;15.20;99.90
6988;DHT22;3534;49.960;8.018;2023-08-07T06:23:58;15.20;99.90
6988;DHT22;3534;49.960;8.018;2023-08-07T06:26:25;15.30;99.90
6988;DHT22;3534;49.960;8.018;2023-08-07T06:28:53;15.30;99.90
6988;DHT22;3534;49.960;8.018;2023-08-07T06:31:19;15.30;99.90
6988;DHT22;3534;49.960;8.018;2023-08-07T06:33:46;15.30;99.90
6988;DHT22;3534;49.960;8.018;2023-08-07T06:36:13;15.30;99.90
6988;DHT22;3534;49.960;8.018;2023-08-07T06:38:39;15.40;99.90
6988;DHT22;3534;49.960;8.018;2023-08-07T06:41:06;15.40;99.90
6988;DHT22;3534;49.960;8.018;2023-08-07T06:43:33;15.40;99.90
6988;DHT22;3534;49.960;8.018;2023-08-07T06:46:01;15.40;99.90
6988;DHT22;3534;49.960;8.018;2023-08-07T06:48:27;15.50;99.90
6988;DHT22;3534;49.960;8.018;2023-08-07T06:50:54;15.50;99.90
6988;DHT22;3534;49.960;8.018;2023-08-07T06:53:20;15.50;99.90
6988;DHT22;3534;49.960;8.018;2023-08-07T06:55:47;15.50;99.90
6988;DHT22;3534;49.960;8.018;2023-08-07T06:58:14;15.50;99.90
6988;DHT22;3534;49.960;8.018;2023-08-07T07:00:40;15.50;99.90
6988;DHT22;3534;49.960;8.018;2023-08-07T07:03:08;15.50;99.90
6988;DHT22;3534;49.960;8.018;2023-08-07T07:05:35;15.60;99.90
6988;DHT22;3534;49.960;8.018;2023-08-07T07:08:02;15.50;99.90
6988;DHT22;3534;49.960;8.018;2023-08-07T07:10:29;15.60;99.90
6988;DHT22;3534;49.960;8.018;2023-08-07T07:12:56;15.60;99.90
6988;DHT22;3534;49.960;8.018;2023-08-07T07:15:22;15.60;99.90
6988;DHT22;3534;49.960;8.018;2023-08-07T07:17:49;15.60;99.90
6988;DHT22;3534;49.960;8.018;2023-08-07T07:20:17;15.60;99.90
6988;DHT22;3534;49.960;8.018;2023-08-07T07:22:44;15.60;99.90
6988;DHT22;3534;49.960;8.018;2023-08-07T07:25:10;15.60;99.90
6988;DHT22;3534;49.960;8.018;2023-08-07T07:27:38;15.60;99.90
6988;DHT22;3534;49.960;8.018;2023-08-07T07:30:06;15.60;99.90
6988;DHT22;3534;49.960;8.018;2023-08-07T07:32:33;15.60;99.90
6988;DHT22;3534;49.960;8.018;2023-08-07T07:35:00;15.60;99.90
6988;DHT22;3534;49.960;8.018;2023-08-07T07:37:28;15.60;99.90
6988;DHT22;3534;49.960;8.018;2023-08-07T07:39:56;15.60;99.90
6988;DHT22;3534;49.960;8.018;2023-08-07T07:42:22;15.70;99.90
6988;DHT22;3534;49.960;8.018;2023-08-07T07:44:49;15.70;99.90
6988;DHT22;3534;49.960;8.018;2023-08-07T07:47:16;15.70;99.90
6988;DHT22;3534;49.960;8.018;2023-08-07T07:49:45;15.70;99.90
6988;DHT22;3534;49.960;8.018;2023-08-07T07:52:13;15.70;99.90
6988;DHT22;3534;49.960;8.018;2023-08-07T07:54:40;15.70;99.90
6988;DHT22;3534;49.960;8.018;2023-08-07T07:57:07;15.70;99.90
6988;DHT22;3534;49.960;8.018;2023-08-07T07:59:34;15.70;99.90
6988;DHT22;3534;49.960;8.018;2023-08-07T08:02:00;15.70;99.90
6988;DHT22;3534;49.960;8.018;2023-08-07T08:04:27;15.80;99.90
6988;DHT22;3534;49.960;8.018;2023-08-07T08:06:54;15.80;99.90
6988;DHT22;3534;49.960;8.018;2023-08-07T08:09:21;15.80;99.90
6988;DHT22;3534;49.960;8.018;2023-08-07T08:11:49;15.80;99.90
6988;DHT22;3534;49.960;8.018;2023-08-07T08:14:15;15.80;99.90
6988;DHT22;3534;49.960;8.018;2023-08-07T08:16:42;15.90;99.90
6988;DHT22;3534;49.960;8.018;2023-08-07T08:19:08;15.90;99.90
6988;DHT22;3534;49.960;8.018;2023-08-07T08:21:35;15.90;99.90
6988;DHT22;3534;49.960;8.018;2023-08-07T08:24:02;16.00;99.90
6988;DHT22;3534;49.960;8.018;2023-08-07T08:26:29;16.00;99.90
6988;DHT22;3534;49.960;8.018;2023-08-07T08:28:57;16.10;99.90
6988;DHT22;3534;49.960;8.018;2023-08-07T08:31:24;16.20;99.90
6988;DHT22;3534;49.960;8.018;2023-08-07T08:33:51;16.20;99.90
6988;DHT22;3534;49.960;8.018;2023-08-07T08:36:17;16.30;99.90
6988;DHT22;3534;49.960;8.018;2023-08-07T08:38:44;16.30;99.90
6988;DHT22;3534;49.960;8.018;2023-08-07T08:41:13;16.30;99.90
6988;DHT22;3534;49.960;8.018;2023-08-07T08:43:43;16.30;99.90
6988;DHT22;3534;49.960;8.018;2023-08-07T08:46:14;16.30;99.90
6988;DHT22;3534;49.960;8.018;2023-08-07T08:48:45;16.30;99.90
6988;DHT22;3534;49.960;8.018;2023-08-07T08:51:13;16.30;99.90
6988;DHT22;3534;49.960;8.018;2023-08-07T08:53:40;16.30;99.90
6988;DHT22;3534;49.960;8.018;2023-08-07T08:56:07;16.30;99.90
6988;DHT22;3534;49.960;8.018;2023-08-07T08:58:34;16.30;99.90
6988;DHT22;3534;49.960;8.018;2023-08-07T09:01:01;16.30;99.90
6988;DHT22;3534;49.960;8.018;2023-08-07T09:03:29;16.30;99.90
6988;DHT22;3534;49.960;8.018;2023-08-07T09:05:58;16.30;99.90
6988;DHT22;3534;49.960;8.018;2023-08-07T09:08:25;16.30;99.90
6988;DHT22;3534;49.960;8.018;2023-08-07T09:10:54;16.30;99.90
6988;DHT22;3534;49.960;8.018;2023-08-07T09:13:23;16.20;99.90
6988;DHT22;3534;49.960;8.018;2023-08-07T09:15:51;16.20;99.90
6988;DHT22;3534;49.960;8.018;2023-08-07T09:18:19;16.10;99.90
6988;DHT22;3534;49.960;8.018;2023-08-07T09:20:48;16.10;99.90
6988;DHT22;3534;49.960;8.018;2023-08-07T09:23:15;16.10;99.90
6988;DHT22;3534;49.960;8.018;2023-08-07T09:25:43;16.00;99.90
6988;DHT22;3534;49.960;8.018;2023-08-07T09:28:09;16.00;99.90
6988;DHT22;3534;49.960;8.018;2023-08-07T09:30:37;16.00;99.90
6988;DHT22;3534;49.960;8.018;2023-08-07T09:33:04;16.00;99.90
6988;DHT22;3534;49.960;8.018;2023-08-07T09:35:32;16.10;99.90
6988;DHT22;3534;49.960;8.018;2023-08-07T09:38:00;16.10;99.90
6988;DHT22;3534;49.960;8.018;2023-08-07T09:40:29;16.10;99.90
6988;DHT22;3534;49.960;8.018;2023-08-07T09:42:56;16.10;99.90
6988;DHT22;3534;49.960;8.018;2023-08-07T09:45:24;16.10;99.90
6988;DHT22;3534;49.960;8.018;2023-08-07T09:47:58;16.20;99.90
6988;DHT22;3534;49.960;8.018;2023-08-07T09:50:25;16.20;99.90
6988;DHT22;3534;49.960;8.018;2023-08-07T09:52:52;16.20;99.90
6988;DHT22;3534;49.960;8.018;2023-08-07T09:55:21;16.20;99.90
6988;DHT22;3534;49.960;8.018;2023-08-07T09:57:48;16.20;99.90
6988;DHT22;3534;49.960;8.018;2023-08-07T10:00:15;16.30;99.90
6988;DHT22;3534;49.960;8.018;2023-08-07T10:02:46;16.40;99.90
6988;DHT22;3534;49.960;8.018;2023-08-07T10:05:13;16.40;99.90
6988;DHT22;3534;49.960;8.018;2023-08-07T10:07:40;16.50;99.90
6988;DHT22;3534;49.960;8.018;2023-08-07T10:10:08;16.50;99.90
6988;DHT22;3534;49.960;8.018;2023-08-07T10:12:37;16.60;99.90
6988;DHT22;3534;49.960;8.018;2023-08-07T10:15:05;16.70;99.90
6988;DHT22;3534;49.960;8.018;2023-08-07T10:17:33;16.80;99.90
6988;DHT22;3534;49.960;8.018;2023-08-07T10:20:00;16.90;99.90
6988;DHT22;3534;49.960;8.018;2023-08-07T10:22:29;17.00;99.90
6988;DHT22;3534;49.960;8.018;2023-08-07T10:24:57;17.10;99.90
6988;DHT22;3534;49.960;8.018;2023-08-07T10:27:26;17.20;99.90
6988;DHT22;3534;49.960;8.018;2023-08-07T10:29:56;17.20;99.90
6988;DHT22;3534;49.960;8.018;2023-08-07T10:32:25;17.30;99.90
6988;DHT22;3534;49.960;8.018;2023-08-07T10:34:52;17.40;99.90
6988;DHT22;3534;49.960;8.018;2023-08-07T10:37:32;17.50;99.90
6988;DHT22;3534;49.960;8.018;2023-08-07T10:40:05;17.50;99.90
6988;DHT22;3534;49.960;8.018;2023-08-07T10:42:50;17.50;99.90
6988;DHT22;3534;49.960;8.018;2023-08-07T10:45:19;17.50;99.90
6988;DHT22;3534;49.960;8.018;2023-08-07T10:47:57;17.50;99.90
6988;DHT22;3534;49.960;8.018;2023-08-07T10:50:28;17.50;99.90
6988;DHT22;3534;49.960;8.018;2023-08-07T10:52:55;17.50;99.90
6988;DHT22;3534;49.960;8.018;2023-08-07T10:55:22;17.50;99.90
6988;DHT22;3534;49.960;8.018;2023-08-07T10:57:50;17.50;99.90
6988;DHT22;3534;49.960;8.018;2023-08-07T11:00:18;17.50;99.90
6988;DHT22;3534;49.960;8.018;2023-08-07T11:02:48;17.50;99.90
6988;DHT22;3534;49.960;8.018;2023-08-07T11:05:17;17.30;99.90
6988;DHT22;3534;49.960;8.018;2023-08-07T11:07:45;17.30;99.90
6988;DHT22;3534;49.960;8.018;2023-08-07T11:10:13;17.50;99.90
6988;DHT22;3534;49.960;8.018;2023-08-07T11:12:41;17.60;99.90
6988;DHT22;3534;49.960;8.018;2023-08-07T11:15:12;17.70;99.90
6988;DHT22;3534;49.960;8.018;2023-08-07T11:17:40;17.80;99.90
6988;DHT22;3534;49.960;8.018;2023-08-07T11:20:09;17.90;99.90
6988;DHT22;3534;49.960;8.018;2023-08-07T11:22:38;18.00;99.90
6988;DHT22;3534;49.960;8.018;2023-08-07T11:25:06;18.00;99.90
6988;DHT22;3534;49.960;8.018;2023-08-07T11:27:36;18.10;99.90
6988;DHT22;3534;49.960;8.018;2023-08-07T11:30:04;18.20;99.90
6988;DHT22;3534;49.960;8.018;2023-08-07T11:32:31;18.30;99.90
6988;DHT22;3534;49.960;8.018;2023-08-07T11:34:59;18.40;99.90
6988;DHT22;3534;49.960;8.018;2023-08-07T11:37:28;18.50;99.90
6988;DHT22;3534;49.960;8.018;2023-08-07T11:40:00;18.40;99.90
6988;DHT22;3534;49.960;8.018;2023-08-07T11:42:28;18.40;99.90
6988;DHT22;3534;49.960;8.018;2023-08-07T11:44:54;18.20;99.90
6988;DHT22;3534;49.960;8.018;2023-08-07T11:47:21;18.10;99.90
6988;DHT22;3534;49.960;8.018;2023-08-07T11:49:48;18.10;99.90
6988;DHT22;3534;49.960;8.018;2023-08-07T11:52:16;18.00;99.90
6988;DHT22;3534;49.960;8.018;2023-08-07T11:54:46;18.00;99.90
6988;DHT22;3534;49.960;8.018;2023-08-07T11:57:17;18.00;99.90
6988;DHT22;3534;49.960;8.018;2023-08-07T11:59:47;18.10;99.90
6988;DHT22;3534;49.960;8.018;2023-08-07T12:02:14;18.20;99.90
6988;DHT22;3534;49.960;8.018;2023-08-07T12:04:41;18.40;99.90
6988;DHT22;3534;49.960;8.018;2023-08-07T12:07:08;18.50;99.90
6988;DHT22;3534;49.960;8.018;2023-08-07T12:09:37;18.60;99.90
6988;DHT22;3534;49.960;8.018;2023-08-07T12:12:06;18.70;99.90
6988;DHT22;3534;49.960;8.018;2023-08-07T12:14:33;18.70;99.90
6988;DHT22;3534;49.960;8.018;2023-08-07T12:17:01;18.70;99.90
6988;DHT22;3534;49.960;8.018;2023-08-07T12:19:36;18.70;99.90
6988;DHT22;3534;49.960;8.018;2023-08-07T12:22:05;18.70;99.90
6988;DHT22;3534;49.960;8.018;2023-08-07T12:24:33;18.70;99.90
6988;DHT22;3534;49.960;8.018;2023-08-07T12:27:02;18.70;99.90
6988;DHT22;3534;49.960;8.018;2023-08-07T12:29:29;18.70;99.90
6988;DHT22;3534;49.960;8.018;2023-08-07T12:31:56;18.80;99.90
6988;DHT22;3534;49.960;8.018;2023-08-07T12:34:24;18.90;99.90
6988;DHT22;3534;49.960;8.018;2023-08-07T12:36:51;19.00;99.90
6988;DHT22;3534;49.960;8.018;2023-08-07T12:39:17;19.10;99.90
6988;DHT22;3534;49.960;8.018;2023-08-07T12:41:44;19.30;99.90
6988;DHT22;3534;49.960;8.018;2023-08-07T12:44:12;19.40;99.90
6988;DHT22;3534;49.960;8.018;2023-08-07T12:46:39;19.40;99.90
6988;DHT22;3534;49.960;8.018;2023-08-07T12:49:08;19.60;99.90
6988;DHT22;3534;49.960;8.018;2023-08-07T12:51:35;19.60;99.90
6988;DHT22;3534;49.960;8.018;2023-08-07T12:54:02;19.60;99.90
6988;DHT22;3534;49.960;8.018;2023-08-07T12:56:29;19.70;99.90
6988;DHT22;3534;49.960;8.018;2023-08-07T12:58:56;19.80;99.90
6988;DHT22;3534;49.960;8.018;2023-08-07T13:01:24;19.90;99.90
6988;DHT22;3534;49.960;8.018;2023-08-07T13:03:51;20.10;99.90
6988;DHT22;3534;49.960;8.018;2023-08-07T13:06:17;20.40;99.90
6988;DHT22;3534;49.960;8.018;2023-08-07T13:08:44;20.50;99.90
6988;DHT22;3534;49.960;8.018;2023-08-07T13:11:12;20.70;99.90
6988;DHT22;3534;49.960;8.018;2023-08-07T13:13:39;20.80;99.90
6988;DHT22;3534;49.960;8.018;2023-08-07T13:16:06;20.80;99.90
6988;DHT22;3534;49.960;8.018;2023-08-07T13:18:34;20.70;99.90
6988;DHT22;3534;49.960;8.018;2023-08-07T13:21:00;20.70;99.90
6988;DHT22;3534;49.960;8.018;2023-08-07T13:23:27;20.60;99.90
6988;DHT22;3534;49.960;8.018;2023-08-07T13:25:54;20.50;99.90
6988;DHT22;3534;49.960;8.018;2023-08-07T13:28:21;20.40;99.90
6988;DHT22;3534;49.960;8.018;2023-08-07T13:30:47;20.60;99.90
6988;DHT22;3534;49.960;8.018;2023-08-07T13:33:15;20.80;99.90
6988;DHT22;3534;49.960;8.018;2023-08-07T13:35:43;21.20;99.90
6988;DHT22;3534;49.960;8.018;2023-08-07T13:38:10;21.70;99.90
6988;DHT22;3534;49.960;8.018;2023-08-07T13:40:38;22.10;99.90
6988;DHT22;3534;49.960;8.018;2023-08-07T13:43:05;22.70;99.90
6988;DHT22;3534;49.960;8.018;2023-08-07T13:45:34;23.30;99.90
6988;DHT22;3534;49.960;8.018;2023-08-07T13:48:01;23.60;99.90
6988;DHT22;3534;49.960;8.018;2023-08-07T13:50:29;23.90;99.90
6988;DHT22;3534;49.960;8.018;2023-08-07T13:52:57;24.40;99.90
6988;DHT22;3534;49.960;8.018;2023-08-07T13:55:23;24.30;99.90
6988;DHT22;3534;49.960;8.018;2023-08-07T13:57:50;24.00;99.90
6988;DHT22;3534;49.960;8.018;2023-08-07T14:00:17;23.60;99.90
6988;DHT22;3534;49.960;8.018;2023-08-07T14:02:43;23.50;99.90
6988;DHT22;3534;49.960;8.018;2023-08-07T14:05:10;23.30;99.90
6988;DHT22;3534;49.960;8.018;2023-08-07T14:07:37;23.10;99.90
6988;DHT22;3534;49.960;8.018;2023-08-07T14:10:06;22.80;99.90
6988;DHT22;3534;49.960;8.018;2023-08-07T14:12:33;22.60;99.90
6988;DHT22;3534;49.960;8.018;2023-08-07T14:15:00;22.50;99.90
6988;DHT22;3534;49.960;8.018;2023-08-07T14:17:26;22.60;99.90
6988;DHT22;3534;49.960;8.018;2023-08-07T14:19:53;23.00;99.90
6988;DHT22;3534;49.960;8.018;2023-08-07T14:22:20;23.50;99.90
6988;DHT22;3534;49.960;8.018;2023-08-07T14:24:46;23.90;99.90
6988;DHT22;3534;49.960;8.018;2023-08-07T14:27:14;24.40;99.90
6988;DHT22;3534;49.960;8.018;2023-08-07T14:29:41;24.60;99.90
6988;DHT22;3534;49.960;8.018;2023-08-07T14:32:08;24.70;99.90
6988;DHT22;3534;49.960;8.018;2023-08-07T14:34:34;24.70;99.90
6988;DHT22;3534;49.960;8.018;2023-08-07T14:37:01;24.70;99.90
6988;DHT22;3534;49.960;8.018;2023-08-07T14:39:28;24.40;99.90
6988;DHT22;3534;49.960;8.018;2023-08-07T14:41:54;23.90;99.90
6988;DHT22;3534;49.960;8.018;2023-08-07T14:44:22;23.50;99.90
6988;DHT22;3534;49.960;8.018;2023-08-07T14:46:49;23.20;99.90
6988;DHT22;3534;49.960;8.018;2023-08-07T14:49:16;22.70;99.90
6988;DHT22;3534;49.960;8.018;2023-08-07T14:51:42;22.50;99.90
6988;DHT22;3534;49.960;8.018;2023-08-07T14:54:09;22.80;99.90
6988;DHT22;3534;49.960;8.018;2023-08-07T14:56:36;23.00;99.90
6988;DHT22;3534;49.960;8.018;2023-08-07T14:59:02;23.30;99.90
6988;DHT22;3534;49.960;8.018;2023-08-07T15:01:30;23.60;99.90
6988;DHT22;3534;49.960;8.018;2023-08-07T15:03:57;24.00;99.90
6988;DHT22;3534;49.960;8.018;2023-08-07T15:06:24;24.20;99.90
6988;DHT22;3534;49.960;8.018;2023-08-07T15:08:50;24.60;99.90
6988;DHT22;3534;49.960;8.018;2023-08-07T15:11:17;24.80;99.80
6988;DHT22;3534;49.960;8.018;2023-08-07T15:13:44;24.90;99.70
6988;DHT22;3534;49.960;8.018;2023-08-07T15:16:10;25.00;99.50
6988;DHT22;3534;49.960;8.018;2023-08-07T15:18:39;25.10;99.60
6988;DHT22;3534;49.960;8.018;2023-08-07T15:21:06;25.20;98.90
6988;DHT22;3534;49.960;8.018;2023-08-07T15:23:32;25.40;96.90
6988;DHT22;3534;49.960;8.018;2023-08-07T15:25:59;25.60;96.30
6988;DHT22;3534;49.960;8.018;2023-08-07T15:28:26;25.70;94.60
6988;DHT22;3534;49.960;8.018;2023-08-07T15:30:53;25.60;94.70
6988;DHT22;3534;49.960;8.018;2023-08-07T15:33:20;25.60;95.00
6988;DHT22;3534;49.960;8.018;2023-08-07T15:35:48;25.80;95.40
6988;DHT22;3534;49.960;8.018;2023-08-07T15:38:17;26.00;94.50
6988;DHT22;3534;49.960;8.018;2023-08-07T15:40:43;26.30;94.50
6988;DHT22;3534;49.960;8.018;2023-08-07T15:43:10;26.40;93.40
6988;DHT22;3534;49.960;8.018;2023-08-07T15:45:37;26.30;93.60
6988;DHT22;3534;49.960;8.018;2023-08-07T15:48:05;26.30;93.40
6988;DHT22;3534;49.960;8.018;2023-08-07T15:50:31;26.20;93.70
6988;DHT22;3534;49.960;8.018;2023-08-07T15:53:03;26.30;94.10
6988;DHT22;3534;49.960;8.018;2023-08-07T15:55:30;26.50;92.10
6988;DHT22;3534;49.960;8.018;2023-08-07T15:58:00;26.70;91.80
6988;DHT22;3534;49.960;8.018;2023-08-07T16:00:27;26.80;91.60
6988;DHT22;3534;49.960;8.018;2023-08-07T16:02:55;26.70;91.80